sensor_id;sensor_type;location;lat;lon;timestamp;P1;durP1;ratioP1;P2;durP2;ratioP2
50483;SDS011;36409;52.168;20.878;2023-05-20T00:00:50;18.90;;;9.40;;
50483;SDS011;36409;52.168;20.878;2023-05-20T00:03:20;13.53;;;8.83;;
50483;SDS011;36409;52.168;20.878;2023-05-20T00:05:57;16.83;;;9.30;;
50483;SDS011;36409;52.168;20.878;2023-05-20T00:08:26;14.57;;;8.87;;
50483;SDS011;36409;52.168;20.878;2023-05-20T00:10:58;18.30;;;8.97;;
50483;SDS011;36409;52.168;20.878;2023-05-20T00:13:29;15.17;;;8.97;;
50483;SDS011;36409;52.168;20.878;2023-05-20T00:16:00;16.67;;;8.60;;
50483;SDS011;36409;52.168;20.878;2023-05-20T00:21:01;16.17;;;7.70;;
50483;SDS011;36409;52.168;20.878;2023-05-20T00:23:30;13.50;;;7.87;;
50483;SDS011;36409;52.168;20.878;2023-05-20T00:26:00;10.53;;;7.23;;
50483;SDS011;36409;52.168;20.878;2023-05-20T00:28:31;13.67;;;7.50;;
50483;SDS011;36409;52.168;20.878;2023-05-20T00:31:04;14.07;;;7.22;;
50483;SDS011;36409;52.168;20.878;2023-05-20T00:33:33;12.23;;;7.47;;
50483;SDS011;36409;52.168;20.878;2023-05-20T00:36:03;15.20;;;7.03;;
50483;SDS011;36409;52.168;20.878;2023-05-20T00:38:34;11.83;;;7.27;;
50483;SDS011;36409;52.168;20.878;2023-05-20T00:41:03;13.17;;;7.17;;
50483;SDS011;36409;52.168;20.878;2023-05-20T00:43:37;13.22;;;6.95;;
50483;SDS011;36409;52.168;20.878;2023-05-20T00:46:07;13.20;;;7.13;;
50483;SDS011;36409;52.168;20.878;2023-05-20T00:48:39;12.67;;;6.83;;
50483;SDS011;36409;52.168;20.878;2023-05-20T00:51:10;12.97;;;7.30;;
50483;SDS011;36409;52.168;20.878;2023-05-20T00:53:44;9.40;;;5.60;;
50483;SDS011;36409;52.168;20.878;2023-05-20T00:56:18;13.60;;;6.77;;
50483;SDS011;36409;52.168;20.878;2023-05-20T00:58:50;10.70;;;7.13;;
50483;SDS011;36409;52.168;20.878;2023-05-20T01:01:20;14.27;;;6.67;;
50483;SDS011;36409;52.168;20.878;2023-05-20T01:03:53;11.47;;;6.67;;
50483;SDS011;36409;52.168;20.878;2023-05-20T01:06:22;10.60;;;6.77;;
50483;SDS011;36409;52.168;20.878;2023-05-20T01:08:53;13.10;;;6.30;;
50483;SDS011;36409;52.168;20.878;2023-05-20T01:14:15;12.13;;;6.77;;
50483;SDS011;36409;52.168;20.878;2023-05-20T01:16:47;12.23;;;6.70;;
50483;SDS011;36409;52.168;20.878;2023-05-20T01:19:25;10.35;;;5.80;;
50483;SDS011;36409;52.168;20.878;2023-05-20T01:22:08;12.03;;;6.23;;
50483;SDS011;36409;52.168;20.878;2023-05-20T01:24:44;9.90;;;6.20;;
50483;SDS011;36409;52.168;20.878;2023-05-20T01:27:14;11.70;;;6.07;;
50483;SDS011;36409;52.168;20.878;2023-05-20T01:29:50;12.00;;;6.37;;
50483;SDS011;36409;52.168;20.878;2023-05-20T01:32:23;14.37;;;6.27;;
50483;SDS011;36409;52.168;20.878;2023-05-20T01:34:55;10.40;;;5.90;;
50483;SDS011;36409;52.168;20.878;2023-05-20T01:37:26;8.30;;;5.63;;
50483;SDS011;36409;52.168;20.878;2023-05-20T01:39:59;13.47;;;5.83;;
50483;SDS011;36409;52.168;20.878;2023-05-20T01:42:30;9.93;;;5.20;;
50483;SDS011;36409;52.168;20.878;2023-05-20T01:45:01;10.67;;;5.63;;
50483;SDS011;36409;52.168;20.878;2023-05-20T01:47:31;12.30;;;6.03;;
50483;SDS011;36409;52.168;20.878;2023-05-20T01:50:00;10.37;;;5.17;;
50483;SDS011;36409;52.168;20.878;2023-05-20T01:52:30;7.87;;;5.50;;
50483;SDS011;36409;52.168;20.878;2023-05-20T01:54:59;15.67;;;5.60;;
50483;SDS011;36409;52.168;20.878;2023-05-20T01:57:30;9.90;;;5.30;;
50483;SDS011;36409;52.168;20.878;2023-05-20T01:59:59;9.30;;;5.70;;
50483;SDS011;36409;52.168;20.878;2023-05-20T02:02:45;9.77;;;4.90;;
50483;SDS011;36409;52.168;20.878;2023-05-20T02:05:15;10.93;;;5.20;;
50483;SDS011;36409;52.168;20.878;2023-05-20T02:07:45;10.33;;;5.40;;
50483;SDS011;36409;52.168;20.878;2023-05-20T02:10:16;9.70;;;5.03;;
50483;SDS011;36409;52.168;20.878;2023-05-20T02:12:46;8.00;;;5.00;;
50483;SDS011;36409;52.168;20.878;2023-05-20T02:15:19;12.58;;;5.22;;
50483;SDS011;36409;52.168;20.878;2023-05-20T02:17:48;7.13;;;4.67;;
50483;SDS011;36409;52.168;20.878;2023-05-20T02:20:19;11.60;;;5.93;;
50483;SDS011;36409;52.168;20.878;2023-05-20T02:22:48;9.77;;;5.33;;
50483;SDS011;36409;52.168;20.878;2023-05-20T02:25:21;7.87;;;4.83;;
50483;SDS011;36409;52.168;20.878;2023-05-20T02:27:51;7.17;;;4.60;;
50483;SDS011;36409;52.168;20.878;2023-05-20T02:30:20;11.37;;;5.00;;
50483;SDS011;36409;52.168;20.878;2023-05-20T02:32:51;12.13;;;5.30;;
50483;SDS011;36409;52.168;20.878;2023-05-20T02:35:21;8.83;;;5.03;;
50483;SDS011;36409;52.168;20.878;2023-05-20T02:37:52;7.53;;;5.10;;
50483;SDS011;36409;52.168;20.878;2023-05-20T02:40:22;8.90;;;4.93;;
50483;SDS011;36409;52.168;20.878;2023-05-20T02:42:51;11.77;;;5.30;;
50483;SDS011;36409;52.168;20.878;2023-05-20T02:45:20;11.43;;;4.90;;
50483;SDS011;36409;52.168;20.878;2023-05-20T02:47:49;10.30;;;4.40;;
50483;SDS011;36409;52.168;20.878;2023-05-20T02:50:21;7.90;;;5.03;;
50483;SDS011;36409;52.168;20.878;2023-05-20T02:52:54;9.00;;;4.53;;
50483;SDS011;36409;52.168;20.878;2023-05-20T02:55:24;11.03;;;4.70;;
50483;SDS011;36409;52.168;20.878;2023-05-20T02:57:56;9.50;;;4.67;;
50483;SDS011;36409;52.168;20.878;2023-05-20T03:00:26;13.43;;;5.77;;
50483;SDS011;36409;52.168;20.878;2023-05-20T03:03:03;8.57;;;4.67;;
50483;SDS011;36409;52.168;20.878;2023-05-20T03:05:34;8.70;;;4.60;;
50483;SDS011;36409;52.168;20.878;2023-05-20T03:08:08;10.60;;;4.47;;
50483;SDS011;36409;52.168;20.878;2023-05-20T03:10:41;7.80;;;4.63;;
50483;SDS011;36409;52.168;20.878;2023-05-20T03:13:13;10.17;;;5.00;;
50483;SDS011;36409;52.168;20.878;2023-05-20T03:15:43;6.73;;;4.50;;
50483;SDS011;36409;52.168;20.878;2023-05-20T03:18:17;9.63;;;5.00;;
50483;SDS011;36409;52.168;20.878;2023-05-20T03:20:46;10.15;;;5.28;;
50483;SDS011;36409;52.168;20.878;2023-05-20T03:23:16;8.77;;;4.77;;
50483;SDS011;36409;52.168;20.878;2023-05-20T03:25:49;11.77;;;4.80;;
50483;SDS011;36409;52.168;20.878;2023-05-20T03:28:20;8.33;;;4.23;;
50483;SDS011;36409;52.168;20.878;2023-05-20T03:30:50;8.30;;;4.27;;
50483;SDS011;36409;52.168;20.878;2023-05-20T03:33:19;8.23;;;4.53;;
50483;SDS011;36409;52.168;20.878;2023-05-20T03:35:53;10.60;;;5.22;;
50483;SDS011;36409;52.168;20.878;2023-05-20T03:38:24;8.93;;;4.53;;
50483;SDS011;36409;52.168;20.878;2023-05-20T03:40:59;10.83;;;5.00;;
50483;SDS011;36409;52.168;20.878;2023-05-20T03:43:31;10.10;;;4.57;;
50483;SDS011;36409;52.168;20.878;2023-05-20T03:49:08;7.97;;;4.60;;
50483;SDS011;36409;52.168;20.878;2023-05-20T03:51:38;9.90;;;4.87;;
50483;SDS011;36409;52.168;20.878;2023-05-20T03:54:11;11.13;;;4.87;;
50483;SDS011;36409;52.168;20.878;2023-05-20T03:56:41;9.25;;;4.80;;
50483;SDS011;36409;52.168;20.878;2023-05-20T03:59:16;9.33;;;4.33;;
50483;SDS011;36409;52.168;20.878;2023-05-20T04:01:51;10.27;;;4.80;;
50483;SDS011;36409;52.168;20.878;2023-05-20T04:04:22;7.77;;;4.53;;
50483;SDS011;36409;52.168;20.878;2023-05-20T04:06:51;9.20;;;4.57;;
50483;SDS011;36409;52.168;20.878;2023-05-20T04:09:20;8.13;;;4.60;;
50483;SDS011;36409;52.168;20.878;2023-05-20T04:11:52;8.33;;;4.67;;
50483;SDS011;36409;52.168;20.878;2023-05-20T04:14:22;12.60;;;5.17;;
50483;SDS011;36409;52.168;20.878;2023-05-20T04:16:52;8.93;;;4.63;;
50483;SDS011;36409;52.168;20.878;2023-05-20T04:19:28;10.53;;;5.03;;
50483;SDS011;36409;52.168;20.878;2023-05-20T04:22:01;8.67;;;4.37;;
50483;SDS011;36409;52.168;20.878;2023-05-20T04:24:31;10.23;;;4.43;;
50483;SDS011;36409;52.168;20.878;2023-05-20T04:27:03;10.97;;;4.93;;
50483;SDS011;36409;52.168;20.878;2023-05-20T04:29:33;9.10;;;4.60;;
50483;SDS011;36409;52.168;20.878;2023-05-20T04:32:09;10.03;;;4.20;;
50483;SDS011;36409;52.168;20.878;2023-05-20T04:34:40;7.80;;;3.67;;
50483;SDS011;36409;52.168;20.878;2023-05-20T04:37:09;7.27;;;4.07;;
50483;SDS011;36409;52.168;20.878;2023-05-20T04:39:47;8.73;;;3.80;;
50483;SDS011;36409;52.168;20.878;2023-05-20T04:42:19;10.63;;;4.47;;
50483;SDS011;36409;52.168;20.878;2023-05-20T04:44:52;11.10;;;3.90;;
50483;SDS011;36409;52.168;20.878;2023-05-20T04:47:23;7.63;;;4.20;;
50483;SDS011;36409;52.168;20.878;2023-05-20T04:49:53;7.17;;;4.00;;
50483;SDS011;36409;52.168;20.878;2023-05-20T04:52:27;6.20;;;3.47;;
50483;SDS011;36409;52.168;20.878;2023-05-20T04:54:56;8.53;;;4.10;;
50483;SDS011;36409;52.168;20.878;2023-05-20T04:57:28;16.07;;;4.10;;
50483;SDS011;36409;52.168;20.878;2023-05-20T05:00:01;9.47;;;4.03;;
50483;SDS011;36409;52.168;20.878;2023-05-20T05:02:49;11.17;;;4.23;;
50483;SDS011;36409;52.168;20.878;2023-05-20T05:05:25;13.50;;;4.13;;
50483;SDS011;36409;52.168;20.878;2023-05-20T05:07:59;10.60;;;4.13;;
50483;SDS011;36409;52.168;20.878;2023-05-20T05:10:48;7.53;;;3.73;;
50483;SDS011;36409;52.168;20.878;2023-05-20T05:13:28;6.37;;;3.57;;
50483;SDS011;36409;52.168;20.878;2023-05-20T05:16:00;6.90;;;3.90;;
50483;SDS011;36409;52.168;20.878;2023-05-20T05:18:30;7.60;;;4.05;;
50483;SDS011;36409;52.168;20.878;2023-05-20T05:21:02;7.20;;;3.37;;
50483;SDS011;36409;52.168;20.878;2023-05-20T05:23:38;9.43;;;4.33;;
50483;SDS011;36409;52.168;20.878;2023-05-20T05:26:09;9.53;;;3.93;;
50483;SDS011;36409;52.168;20.878;2023-05-20T05:28:40;6.13;;;3.37;;
50483;SDS011;36409;52.168;20.878;2023-05-20T05:31:19;9.30;;;3.80;;
50483;SDS011;36409;52.168;20.878;2023-05-20T05:33:50;6.30;;;3.63;;
50483;SDS011;36409;52.168;20.878;2023-05-20T05:36:20;7.30;;;3.90;;
50483;SDS011;36409;52.168;20.878;2023-05-20T05:38:53;13.80;;;4.27;;
50483;SDS011;36409;52.168;20.878;2023-05-20T05:41:22;7.23;;;3.70;;
50483;SDS011;36409;52.168;20.878;2023-05-20T05:43:52;7.20;;;3.40;;
50483;SDS011;36409;52.168;20.878;2023-05-20T05:48:57;7.57;;;3.23;;
50483;SDS011;36409;52.168;20.878;2023-05-20T05:51:28;6.57;;;3.27;;
50483;SDS011;36409;52.168;20.878;2023-05-20T05:54:07;13.63;;;4.33;;
50483;SDS011;36409;52.168;20.878;2023-05-20T05:56:36;7.07;;;3.27;;
50483;SDS011;36409;52.168;20.878;2023-05-20T05:59:06;9.10;;;3.83;;
50483;SDS011;36409;52.168;20.878;2023-05-20T06:01:35;8.07;;;3.13;;
50483;SDS011;36409;52.168;20.878;2023-05-20T06:04:27;10.73;;;4.07;;
50483;SDS011;36409;52.168;20.878;2023-05-20T06:07:01;7.50;;;3.40;;
50483;SDS011;36409;52.168;20.878;2023-05-20T06:09:30;10.93;;;3.50;;
50483;SDS011;36409;52.168;20.878;2023-05-20T06:11:59;6.60;;;3.60;;
50483;SDS011;36409;52.168;20.878;2023-05-20T06:14:29;7.73;;;3.20;;
50483;SDS011;36409;52.168;20.878;2023-05-20T06:17:03;5.93;;;3.40;;
50483;SDS011;36409;52.168;20.878;2023-05-20T06:19:35;7.93;;;3.53;;
50483;SDS011;36409;52.168;20.878;2023-05-20T06:22:05;6.47;;;3.60;;
50483;SDS011;36409;52.168;20.878;2023-05-20T06:24:37;8.37;;;4.03;;
50483;SDS011;36409;52.168;20.878;2023-05-20T06:27:09;7.47;;;3.90;;
50483;SDS011;36409;52.168;20.878;2023-05-20T06:29:42;9.43;;;3.57;;
50483;SDS011;36409;52.168;20.878;2023-05-20T06:32:16;8.20;;;4.07;;
50483;SDS011;36409;52.168;20.878;2023-05-20T06:34:48;8.23;;;3.70;;
50483;SDS011;36409;52.168;20.878;2023-05-20T06:37:26;10.80;;;4.17;;
50483;SDS011;36409;52.168;20.878;2023-05-20T06:39:55;12.07;;;3.47;;
50483;SDS011;36409;52.168;20.878;2023-05-20T06:42:25;8.30;;;3.30;;
50483;SDS011;36409;52.168;20.878;2023-05-20T06:45:06;6.77;;;4.00;;
50483;SDS011;36409;52.168;20.878;2023-05-20T06:47:54;8.97;;;3.53;;
50483;SDS011;36409;52.168;20.878;2023-05-20T06:50:23;9.10;;;3.60;;
50483;SDS011;36409;52.168;20.878;2023-05-20T06:52:56;7.50;;;3.80;;
50483;SDS011;36409;52.168;20.878;2023-05-20T06:55:38;5.97;;;3.35;;
50483;SDS011;36409;52.168;20.878;2023-05-20T06:58:16;7.63;;;3.73;;
50483;SDS011;36409;52.168;20.878;2023-05-20T07:00:46;7.00;;;3.80;;
50483;SDS011;36409;52.168;20.878;2023-05-20T07:03:15;6.73;;;3.63;;
50483;SDS011;36409;52.168;20.878;2023-05-20T07:05:46;9.63;;;4.43;;
50483;SDS011;36409;52.168;20.878;2023-05-20T07:08:21;7.60;;;3.77;;
50483;SDS011;36409;52.168;20.878;2023-05-20T07:10:51;9.43;;;3.97;;
50483;SDS011;36409;52.168;20.878;2023-05-20T07:13:31;5.43;;;3.57;;
50483;SDS011;36409;52.168;20.878;2023-05-20T07:16:01;7.97;;;4.23;;
50483;SDS011;36409;52.168;20.878;2023-05-20T07:18:44;10.10;;;4.13;;
50483;SDS011;36409;52.168;20.878;2023-05-20T07:21:18;9.87;;;4.27;;
50483;SDS011;36409;52.168;20.878;2023-05-20T07:24:06;7.10;;;3.83;;
50483;SDS011;36409;52.168;20.878;2023-05-20T07:26:37;7.43;;;3.67;;
50483;SDS011;36409;52.168;20.878;2023-05-20T07:29:20;12.03;;;4.00;;
50483;SDS011;36409;52.168;20.878;2023-05-20T07:31:53;10.73;;;4.20;;
50483;SDS011;36409;52.168;20.878;2023-05-20T07:34:25;7.67;;;3.87;;
50483;SDS011;36409;52.168;20.878;2023-05-20T07:36:54;7.47;;;3.80;;
50483;SDS011;36409;52.168;20.878;2023-05-20T07:39:25;11.43;;;3.83;;
50483;SDS011;36409;52.168;20.878;2023-05-20T07:41:54;9.97;;;4.10;;
50483;SDS011;36409;52.168;20.878;2023-05-20T07:44:25;8.83;;;4.53;;
50483;SDS011;36409;52.168;20.878;2023-05-20T07:46:56;8.77;;;4.07;;
50483;SDS011;36409;52.168;20.878;2023-05-20T07:49:34;6.90;;;3.87;;
50483;SDS011;36409;52.168;20.878;2023-05-20T07:52:04;11.93;;;4.17;;
50483;SDS011;36409;52.168;20.878;2023-05-20T07:54:36;9.37;;;3.50;;
50483;SDS011;36409;52.168;20.878;2023-05-20T07:57:11;6.13;;;3.50;;
50483;SDS011;36409;52.168;20.878;2023-05-20T07:59:45;12.77;;;4.70;;
50483;SDS011;36409;52.168;20.878;2023-05-20T08:02:19;12.73;;;3.40;;
50483;SDS011;36409;52.168;20.878;2023-05-20T08:04:52;8.33;;;3.70;;
50483;SDS011;36409;52.168;20.878;2023-05-20T08:07:21;11.53;;;4.40;;
50483;SDS011;36409;52.168;20.878;2023-05-20T08:09:54;8.63;;;3.83;;
50483;SDS011;36409;52.168;20.878;2023-05-20T08:12:23;7.37;;;4.47;;
50483;SDS011;36409;52.168;20.878;2023-05-20T08:14:54;8.00;;;3.43;;
50483;SDS011;36409;52.168;20.878;2023-05-20T08:17:24;7.83;;;4.30;;
50483;SDS011;36409;52.168;20.878;2023-05-20T08:19:54;8.67;;;3.60;;
50483;SDS011;36409;52.168;20.878;2023-05-20T08:22:23;11.10;;;5.20;;
50483;SDS011;36409;52.168;20.878;2023-05-20T08:24:52;9.30;;;3.83;;
50483;SDS011;36409;52.168;20.878;2023-05-20T08:27:21;8.37;;;3.90;;
50483;SDS011;36409;52.168;20.878;2023-05-20T08:29:51;11.27;;;4.33;;
50483;SDS011;36409;52.168;20.878;2023-05-20T08:32:20;7.40;;;3.77;;
50483;SDS011;36409;52.168;20.878;2023-05-20T08:34:51;8.27;;;3.97;;
50483;SDS011;36409;52.168;20.878;2023-05-20T08:37:26;6.37;;;3.53;;
50483;SDS011;36409;52.168;20.878;2023-05-20T08:39:56;11.97;;;3.83;;
50483;SDS011;36409;52.168;20.878;2023-05-20T08:42:28;7.47;;;3.40;;
50483;SDS011;36409;52.168;20.878;2023-05-20T08:44:59;10.23;;;3.90;;
50483;SDS011;36409;52.168;20.878;2023-05-20T08:47:30;8.60;;;3.40;;
50483;SDS011;36409;52.168;20.878;2023-05-20T08:50:03;7.70;;;3.20;;
50483;SDS011;36409;52.168;20.878;2023-05-20T08:52:34;8.87;;;3.10;;
50483;SDS011;36409;52.168;20.878;2023-05-20T08:55:10;5.87;;;3.20;;
50483;SDS011;36409;52.168;20.878;2023-05-20T08:57:56;6.10;;;3.17;;
50483;SDS011;36409;52.168;20.878;2023-05-20T09:00:27;7.03;;;2.80;;
50483;SDS011;36409;52.168;20.878;2023-05-20T09:02:57;12.27;;;3.67;;
50483;SDS011;36409;52.168;20.878;2023-05-20T09:05:31;6.10;;;3.13;;
50483;SDS011;36409;52.168;20.878;2023-05-20T09:08:07;6.27;;;2.97;;
50483;SDS011;36409;52.168;20.878;2023-05-20T09:10:41;6.17;;;3.20;;
50483;SDS011;36409;52.168;20.878;2023-05-20T09:13:10;6.33;;;2.83;;
50483;SDS011;36409;52.168;20.878;2023-05-20T09:15:41;6.03;;;3.27;;
50483;SDS011;36409;52.168;20.878;2023-05-20T09:18:10;9.67;;;3.73;;
50483;SDS011;36409;52.168;20.878;2023-05-20T09:20:41;6.77;;;3.53;;
50483;SDS011;36409;52.168;20.878;2023-05-20T09:23:17;7.15;;;3.17;;
50483;SDS011;36409;52.168;20.878;2023-05-20T09:25:49;7.20;;;3.33;;
50483;SDS011;36409;52.168;20.878;2023-05-20T09:28:21;5.70;;;2.87;;
50483;SDS011;36409;52.168;20.878;2023-05-20T09:30:55;5.10;;;2.73;;
50483;SDS011;36409;52.168;20.878;2023-05-20T09:33:27;6.80;;;3.13;;
50483;SDS011;36409;52.168;20.878;2023-05-20T09:36:05;7.23;;;3.37;;
50483;SDS011;36409;52.168;20.878;2023-05-20T09:38:36;6.43;;;3.17;;
50483;SDS011;36409;52.168;20.878;2023-05-20T09:41:09;8.23;;;3.77;;
50483;SDS011;36409;52.168;20.878;2023-05-20T09:43:41;6.50;;;3.10;;
50483;SDS011;36409;52.168;20.878;2023-05-20T09:46:12;6.73;;;3.00;;
50483;SDS011;36409;52.168;20.878;2023-05-20T09:48:44;6.42;;;3.33;;
50483;SDS011;36409;52.168;20.878;2023-05-20T09:51:14;11.93;;;3.50;;
50483;SDS011;36409;52.168;20.878;2023-05-20T09:53:44;9.87;;;3.30;;
50483;SDS011;36409;52.168;20.878;2023-05-20T09:56:15;5.97;;;3.53;;
50483;SDS011;36409;52.168;20.878;2023-05-20T09:58:49;6.10;;;2.90;;
50483;SDS011;36409;52.168;20.878;2023-05-20T10:01:25;6.43;;;3.07;;
50483;SDS011;36409;52.168;20.878;2023-05-20T10:03:54;5.07;;;3.17;;
50483;SDS011;36409;52.168;20.878;2023-05-20T10:06:30;5.43;;;3.07;;
50483;SDS011;36409;52.168;20.878;2023-05-20T10:12:20;6.13;;;3.00;;
50483;SDS011;36409;52.168;20.878;2023-05-20T10:14:57;7.00;;;3.50;;
50483;SDS011;36409;52.168;20.878;2023-05-20T10:17:39;7.53;;;3.13;;
50483;SDS011;36409;52.168;20.878;2023-05-20T10:20:15;10.87;;;4.10;;
50483;SDS011;36409;52.168;20.878;2023-05-20T10:22:53;7.23;;;3.33;;
50483;SDS011;36409;52.168;20.878;2023-05-20T10:25:25;9.77;;;3.80;;
50483;SDS011;36409;52.168;20.878;2023-05-20T10:28:06;6.90;;;3.43;;
50483;SDS011;36409;52.168;20.878;2023-05-20T10:30:36;8.95;;;3.70;;
50483;SDS011;36409;52.168;20.878;2023-05-20T10:33:16;8.83;;;3.83;;
50483;SDS011;36409;52.168;20.878;2023-05-20T10:35:48;7.20;;;3.13;;
50483;SDS011;36409;52.168;20.878;2023-05-20T10:38:18;9.88;;;3.77;;
50483;SDS011;36409;52.168;20.878;2023-05-20T10:40:51;7.97;;;3.77;;
50483;SDS011;36409;52.168;20.878;2023-05-20T10:43:25;8.60;;;3.23;;
50483;SDS011;36409;52.168;20.878;2023-05-20T10:45:57;6.50;;;3.67;;
50483;SDS011;36409;52.168;20.878;2023-05-20T10:48:28;10.87;;;3.70;;
50483;SDS011;36409;52.168;20.878;2023-05-20T10:51:02;7.10;;;3.50;;
50483;SDS011;36409;52.168;20.878;2023-05-20T10:53:37;9.57;;;3.57;;
50483;SDS011;36409;52.168;20.878;2023-05-20T10:56:16;8.77;;;3.57;;
50483;SDS011;36409;52.168;20.878;2023-05-20T10:58:49;5.70;;;3.63;;
50483;SDS011;36409;52.168;20.878;2023-05-20T11:01:23;8.05;;;3.70;;
50483;SDS011;36409;52.168;20.878;2023-05-20T11:03:53;6.13;;;2.90;;
50483;SDS011;36409;52.168;20.878;2023-05-20T11:06:25;6.73;;;3.60;;
50483;SDS011;36409;52.168;20.878;2023-05-20T11:08:56;6.63;;;3.37;;
50483;SDS011;36409;52.168;20.878;2023-05-20T11:11:34;7.27;;;3.77;;
50483;SDS011;36409;52.168;20.878;2023-05-20T11:14:04;9.50;;;3.23;;
50483;SDS011;36409;52.168;20.878;2023-05-20T11:16:34;5.53;;;3.23;;
50483;SDS011;36409;52.168;20.878;2023-05-20T11:19:03;6.50;;;3.60;;
50483;SDS011;36409;52.168;20.878;2023-05-20T11:21:42;8.25;;;3.25;;
50483;SDS011;36409;52.168;20.878;2023-05-20T11:24:12;5.63;;;3.37;;
50483;SDS011;36409;52.168;20.878;2023-05-20T11:26:49;9.10;;;3.50;;
50483;SDS011;36409;52.168;20.878;2023-05-20T11:29:19;8.43;;;3.57;;
50483;SDS011;36409;52.168;20.878;2023-05-20T11:31:52;8.53;;;3.20;;
50483;SDS011;36409;52.168;20.878;2023-05-20T11:34:22;10.03;;;3.80;;
50483;SDS011;36409;52.168;20.878;2023-05-20T11:36:55;5.53;;;3.37;;
50483;SDS011;36409;52.168;20.878;2023-05-20T11:39:28;11.17;;;3.63;;
50483;SDS011;36409;52.168;20.878;2023-05-20T11:41:59;7.97;;;3.50;;
50483;SDS011;36409;52.168;20.878;2023-05-20T11:44:28;7.13;;;3.43;;
50483;SDS011;36409;52.168;20.878;2023-05-20T11:47:00;6.80;;;3.27;;
50483;SDS011;36409;52.168;20.878;2023-05-20T11:49:30;8.03;;;3.40;;
50483;SDS011;36409;52.168;20.878;2023-05-20T11:52:08;7.33;;;3.57;;
50483;SDS011;36409;52.168;20.878;2023-05-20T11:54:41;12.60;;;3.73;;
50483;SDS011;36409;52.168;20.878;2023-05-20T11:57:10;5.57;;;3.63;;
50483;SDS011;36409;52.168;20.878;2023-05-20T11:59:48;9.35;;;3.65;;
50483;SDS011;36409;52.168;20.878;2023-05-20T12:02:18;6.87;;;3.70;;
50483;SDS011;36409;52.168;20.878;2023-05-20T12:04:47;6.73;;;3.30;;
50483;SDS011;36409;52.168;20.878;2023-05-20T12:07:16;7.40;;;3.60;;
50483;SDS011;36409;52.168;20.878;2023-05-20T12:09:45;6.80;;;3.90;;
50483;SDS011;36409;52.168;20.878;2023-05-20T12:12:15;13.90;;;4.50;;
50483;SDS011;36409;52.168;20.878;2023-05-20T12:14:47;8.70;;;3.83;;
50483;SDS011;36409;52.168;20.878;2023-05-20T12:17:17;7.77;;;4.30;;
50483;SDS011;36409;52.168;20.878;2023-05-20T12:19:48;8.53;;;3.83;;
50483;SDS011;36409;52.168;20.878;2023-05-20T12:22:17;7.87;;;3.70;;
50483;SDS011;36409;52.168;20.878;2023-05-20T12:24:46;6.60;;;3.37;;
50483;SDS011;36409;52.168;20.878;2023-05-20T12:27:17;6.47;;;3.43;;
50483;SDS011;36409;52.168;20.878;2023-05-20T12:29:45;8.57;;;3.60;;
50483;SDS011;36409;52.168;20.878;2023-05-20T12:32:15;9.00;;;3.87;;
50483;SDS011;36409;52.168;20.878;2023-05-20T12:34:44;5.43;;;3.60;;
50483;SDS011;36409;52.168;20.878;2023-05-20T12:37:14;5.23;;;3.33;;
50483;SDS011;36409;52.168;20.878;2023-05-20T12:39:43;7.20;;;3.97;;
50483;SDS011;36409;52.168;20.878;2023-05-20T12:42:13;7.60;;;3.67;;
50483;SDS011;36409;52.168;20.878;2023-05-20T12:44:46;8.90;;;4.03;;
50483;SDS011;36409;52.168;20.878;2023-05-20T12:47:15;7.13;;;3.50;;
50483;SDS011;36409;52.168;20.878;2023-05-20T12:49:45;8.60;;;4.07;;
50483;SDS011;36409;52.168;20.878;2023-05-20T12:52:17;8.77;;;4.13;;
50483;SDS011;36409;52.168;20.878;2023-05-20T12:54:49;7.83;;;3.92;;
50483;SDS011;36409;52.168;20.878;2023-05-20T12:57:19;6.87;;;4.13;;
50483;SDS011;36409;52.168;20.878;2023-05-20T12:59:48;7.63;;;3.77;;
50483;SDS011;36409;52.168;20.878;2023-05-20T13:02:18;7.97;;;4.13;;
50483;SDS011;36409;52.168;20.878;2023-05-20T13:04:48;8.07;;;3.67;;
50483;SDS011;36409;52.168;20.878;2023-05-20T13:07:17;7.57;;;3.70;;
50483;SDS011;36409;52.168;20.878;2023-05-20T13:09:46;6.93;;;3.43;;
50483;SDS011;36409;52.168;20.878;2023-05-20T13:12:15;6.40;;;3.73;;
50483;SDS011;36409;52.168;20.878;2023-05-20T13:14:44;6.20;;;3.70;;
50483;SDS011;36409;52.168;20.878;2023-05-20T13:17:13;8.17;;;4.10;;
50483;SDS011;36409;52.168;20.878;2023-05-20T13:19:48;7.33;;;4.03;;
50483;SDS011;36409;52.168;20.878;2023-05-20T13:22:18;11.90;;;4.47;;
50483;SDS011;36409;52.168;20.878;2023-05-20T13:24:48;6.83;;;4.00;;
50483;SDS011;36409;52.168;20.878;2023-05-20T13:27:17;7.43;;;3.90;;
50483;SDS011;36409;52.168;20.878;2023-05-20T13:29:46;11.20;;;3.77;;
50483;SDS011;36409;52.168;20.878;2023-05-20T13:32:18;7.07;;;3.77;;
50483;SDS011;36409;52.168;20.878;2023-05-20T13:34:48;11.20;;;4.20;;
50483;SDS011;36409;52.168;20.878;2023-05-20T13:37:17;8.90;;;4.07;;
50483;SDS011;36409;52.168;20.878;2023-05-20T13:39:46;11.43;;;4.03;;
50483;SDS011;36409;52.168;20.878;2023-05-20T13:42:16;8.30;;;3.23;;
50483;SDS011;36409;52.168;20.878;2023-05-20T13:44:49;6.73;;;3.30;;
50483;SDS011;36409;52.168;20.878;2023-05-20T13:47:24;8.60;;;3.93;;
50483;SDS011;36409;52.168;20.878;2023-05-20T13:49:53;6.83;;;3.70;;
50483;SDS011;36409;52.168;20.878;2023-05-20T13:52:27;7.23;;;3.30;;
50483;SDS011;36409;52.168;20.878;2023-05-20T13:54:55;6.00;;;3.27;;
50483;SDS011;36409;52.168;20.878;2023-05-20T13:57:24;8.97;;;3.60;;
50483;SDS011;36409;52.168;20.878;2023-05-20T13:59:53;12.80;;;3.87;;
50483;SDS011;36409;52.168;20.878;2023-05-20T14:02:22;8.37;;;4.30;;
50483;SDS011;36409;52.168;20.878;2023-05-20T14:04:51;6.17;;;3.77;;
50483;SDS011;36409;52.168;20.878;2023-05-20T14:07:20;7.03;;;3.93;;
50483;SDS011;36409;52.168;20.878;2023-05-20T14:09:49;8.93;;;4.43;;
50483;SDS011;36409;52.168;20.878;2023-05-20T14:12:19;6.67;;;3.87;;
50483;SDS011;36409;52.168;20.878;2023-05-20T14:14:50;8.43;;;5.13;;
50483;SDS011;36409;52.168;20.878;2023-05-20T14:17:20;6.20;;;4.13;;
50483;SDS011;36409;52.168;20.878;2023-05-20T14:19:49;8.60;;;3.87;;
50483;SDS011;36409;52.168;20.878;2023-05-20T14:22:18;7.80;;;4.23;;
50483;SDS011;36409;52.168;20.878;2023-05-20T14:24:50;8.90;;;5.13;;
50483;SDS011;36409;52.168;20.878;2023-05-20T14:27:19;8.27;;;4.50;;
50483;SDS011;36409;52.168;20.878;2023-05-20T14:29:48;6.90;;;4.10;;
50483;SDS011;36409;52.168;20.878;2023-05-20T14:32:18;9.00;;;4.10;;
50483;SDS011;36409;52.168;20.878;2023-05-20T14:34:48;8.33;;;3.77;;
50483;SDS011;36409;52.168;20.878;2023-05-20T14:37:21;7.20;;;3.93;;
50483;SDS011;36409;52.168;20.878;2023-05-20T14:39:50;9.58;;;3.80;;
50483;SDS011;36409;52.168;20.878;2023-05-20T14:42:19;9.57;;;3.87;;
50483;SDS011;36409;52.168;20.878;2023-05-20T14:44:49;6.13;;;3.30;;
50483;SDS011;36409;52.168;20.878;2023-05-20T14:47:21;9.30;;;3.58;;
50483;SDS011;36409;52.168;20.878;2023-05-20T14:49:50;17.20;;;4.13;;
50483;SDS011;36409;52.168;20.878;2023-05-20T14:52:19;7.07;;;3.90;;
50483;SDS011;36409;52.168;20.878;2023-05-20T14:54:49;10.77;;;3.60;;
50483;SDS011;36409;52.168;20.878;2023-05-20T14:57:19;9.63;;;3.77;;
50483;SDS011;36409;52.168;20.878;2023-05-20T14:59:51;9.65;;;3.87;;
50483;SDS011;36409;52.168;20.878;2023-05-20T15:02:23;7.53;;;3.93;;
50483;SDS011;36409;52.168;20.878;2023-05-20T15:04:53;8.90;;;4.30;;
50483;SDS011;36409;52.168;20.878;2023-05-20T15:07:22;6.77;;;4.47;;
50483;SDS011;36409;52.168;20.878;2023-05-20T15:09:52;9.33;;;4.07;;
50483;SDS011;36409;52.168;20.878;2023-05-20T15:12:21;8.20;;;4.50;;